sensor_id;sensor_type;location;lat;lon;timestamp;P1;durP1;ratioP1;P2;durP2;ratioP2
42124;SDS011;27787;44.594;11.046;2023-09-08T00:01:53;11.97;;;7.30;;
42124;SDS011;27787;44.594;11.046;2023-09-08T00:04:37;11.32;;;7.63;;
42124;SDS011;27787;44.594;11.046;2023-09-08T00:07:22;15.57;;;8.03;;
42124;SDS011;27787;44.594;11.046;2023-09-08T00:10:06;12.23;;;7.65;;
42124;SDS011;27787;44.594;11.046;2023-09-08T00:12:51;12.90;;;7.30;;
42124;SDS011;27787;44.594;11.046;2023-09-08T00:15:35;11.73;;;7.18;;
42124;SDS011;27787;44.594;11.046;2023-09-08T00:18:19;13.87;;;7.17;;
42124;SDS011;27787;44.594;11.046;2023-09-08T00:21:03;13.77;;;7.40;;
42124;SDS011;27787;44.594;11.046;2023-09-08T00:23:47;9.93;;;7.57;;
42124;SDS011;27787;44.594;11.046;2023-09-08T00:26:32;13.45;;;7.57;;
42124;SDS011;27787;44.594;11.046;2023-09-08T00:29:16;11.48;;;7.40;;
42124;SDS011;27787;44.594;11.046;2023-09-08T00:32:01;10.68;;;7.68;;
42124;SDS011;27787;44.594;11.046;2023-09-08T00:34:45;14.95;;;7.88;;
42124;SDS011;27787;44.594;11.046;2023-09-08T00:37:29;16.58;;;8.50;;
42124;SDS011;27787;44.594;11.046;2023-09-08T00:40:13;11.43;;;8.13;;
42124;SDS011;27787;44.594;11.046;2023-09-08T00:42:57;19.60;;;8.43;;
42124;SDS011;27787;44.594;11.046;2023-09-08T00:45:41;16.73;;;8.85;;
42124;SDS011;27787;44.594;11.046;2023-09-08T00:48:26;13.73;;;8.27;;
42124;SDS011;27787;44.594;11.046;2023-09-08T00:51:10;13.80;;;9.32;;
42124;SDS011;27787;44.594;11.046;2023-09-08T00:53:55;12.23;;;8.40;;
42124;SDS011;27787;44.594;11.046;2023-09-08T00:56:39;12.07;;;8.68;;
42124;SDS011;27787;44.594;11.046;2023-09-08T00:59:24;14.70;;;8.97;;
42124;SDS011;27787;44.594;11.046;2023-09-08T01:02:09;11.05;;;7.78;;
42124;SDS011;27787;44.594;11.046;2023-09-08T01:04:53;14.98;;;7.82;;
42124;SDS011;27787;44.594;11.046;2023-09-08T01:07:37;10.95;;;7.70;;
42124;SDS011;27787;44.594;11.046;2023-09-08T01:13:07;14.45;;;7.72;;
42124;SDS011;27787;44.594;11.046;2023-09-08T01:15:52;13.90;;;7.83;;
42124;SDS011;27787;44.594;11.046;2023-09-08T01:18:37;9.70;;;7.27;;
42124;SDS011;27787;44.594;11.046;2023-09-08T01:21:49;11.95;;;7.18;;
42124;SDS011;27787;44.594;11.046;2023-09-08T01:27:43;13.70;;;7.00;;
42124;SDS011;27787;44.594;11.046;2023-09-08T01:30:30;9.88;;;7.38;;
42124;SDS011;27787;44.594;11.046;2023-09-08T01:33:16;11.88;;;7.10;;
42124;SDS011;27787;44.594;11.046;2023-09-08T01:36:02;12.00;;;8.25;;
42124;SDS011;27787;44.594;11.046;2023-09-08T01:38:47;12.27;;;7.72;;
42124;SDS011;27787;44.594;11.046;2023-09-08T01:41:30;10.85;;;7.88;;
42124;SDS011;27787;44.594;11.046;2023-09-08T01:44:17;13.98;;;7.95;;
42124;SDS011;27787;44.594;11.046;2023-09-08T01:47:01;12.50;;;8.32;;
42124;SDS011;27787;44.594;11.046;2023-09-08T01:49:45;12.55;;;7.93;;
42124;SDS011;27787;44.594;11.046;2023-09-08T01:52:29;9.98;;;7.60;;
42124;SDS011;27787;44.594;11.046;2023-09-08T01:55:14;9.75;;;7.57;;
42124;SDS011;27787;44.594;11.046;2023-09-08T01:58:00;13.15;;;7.70;;
42124;SDS011;27787;44.594;11.046;2023-09-08T02:03:32;12.38;;;7.03;;
42124;SDS011;27787;44.594;11.046;2023-09-08T02:09:01;11.63;;;7.63;;
42124;SDS011;27787;44.594;11.046;2023-09-08T02:11:46;13.20;;;8.63;;
42124;SDS011;27787;44.594;11.046;2023-09-08T02:14:30;9.20;;;7.60;;
42124;SDS011;27787;44.594;11.046;2023-09-08T02:17:14;15.27;;;8.25;;
42124;SDS011;27787;44.594;11.046;2023-09-08T02:19:58;15.00;;;7.95;;
42124;SDS011;27787;44.594;11.046;2023-09-08T02:22:42;14.60;;;7.32;;
42124;SDS011;27787;44.594;11.046;2023-09-08T02:25:27;10.83;;;7.43;;
42124;SDS011;27787;44.594;11.046;2023-09-08T02:28:12;11.68;;;7.75;;
42124;SDS011;27787;44.594;11.046;2023-09-08T02:30:56;10.53;;;6.93;;
42124;SDS011;27787;44.594;11.046;2023-09-08T02:33:41;11.13;;;7.43;;
42124;SDS011;27787;44.594;11.046;2023-09-08T02:36:25;15.53;;;7.83;;
42124;SDS011;27787;44.594;11.046;2023-09-08T02:39:11;10.55;;;7.15;;
42124;SDS011;27787;44.594;11.046;2023-09-08T02:41:56;12.35;;;7.40;;
42124;SDS011;27787;44.594;11.046;2023-09-08T02:44:40;9.75;;;7.38;;
42124;SDS011;27787;44.594;11.046;2023-09-08T02:47:25;14.20;;;7.43;;
42124;SDS011;27787;44.594;11.046;2023-09-08T02:50:09;12.48;;;8.13;;
42124;SDS011;27787;44.594;11.046;2023-09-08T02:52:53;12.50;;;7.72;;
42124;SDS011;27787;44.594;11.046;2023-09-08T02:55:37;11.00;;;7.45;;
42124;SDS011;27787;44.594;11.046;2023-09-08T02:58:21;14.00;;;7.97;;
42124;SDS011;27787;44.594;11.046;2023-09-08T03:01:24;14.88;;;7.85;;
42124;SDS011;27787;44.594;11.046;2023-09-08T03:04:08;11.95;;;7.40;;
42124;SDS011;27787;44.594;11.046;2023-09-08T03:06:52;10.30;;;7.25;;
42124;SDS011;27787;44.594;11.046;2023-09-08T03:09:37;14.50;;;7.78;;
42124;SDS011;27787;44.594;11.046;2023-09-08T03:12:21;12.57;;;8.55;;
42124;SDS011;27787;44.594;11.046;2023-09-08T03:15:05;16.00;;;7.88;;
42124;SDS011;27787;44.594;11.046;2023-09-08T03:17:50;9.48;;;7.28;;
42124;SDS011;27787;44.594;11.046;2023-09-08T03:20:34;9.90;;;7.22;;
42124;SDS011;27787;44.594;11.046;2023-09-08T03:23:18;12.52;;;7.30;;
42124;SDS011;27787;44.594;11.046;2023-09-08T03:26:02;12.80;;;7.35;;
42124;SDS011;27787;44.594;11.046;2023-09-08T03:28:46;14.38;;;7.88;;
42124;SDS011;27787;44.594;11.046;2023-09-08T03:31:30;11.32;;;7.60;;
42124;SDS011;27787;44.594;11.046;2023-09-08T03:34:14;10.43;;;7.70;;
42124;SDS011;27787;44.594;11.046;2023-09-08T03:36:59;10.15;;;6.75;;
42124;SDS011;27787;44.594;11.046;2023-09-08T03:39:43;10.85;;;7.10;;
42124;SDS011;27787;44.594;11.046;2023-09-08T03:42:30;11.02;;;6.90;;
42124;SDS011;27787;44.594;11.046;2023-09-08T03:45:14;12.50;;;6.97;;
42124;SDS011;27787;44.594;11.046;2023-09-08T03:47:59;9.32;;;6.57;;
42124;SDS011;27787;44.594;11.046;2023-09-08T03:50:43;9.85;;;7.60;;
42124;SDS011;27787;44.594;11.046;2023-09-08T03:53:29;12.45;;;8.10;;
42124;SDS011;27787;44.594;11.046;2023-09-08T03:58:59;10.45;;;7.72;;
42124;SDS011;27787;44.594;11.046;2023-09-08T04:01:43;10.57;;;7.50;;
42124;SDS011;27787;44.594;11.046;2023-09-08T04:04:27;9.65;;;6.97;;
42124;SDS011;27787;44.594;11.046;2023-09-08T04:07:11;10.73;;;7.03;;
42124;SDS011;27787;44.594;11.046;2023-09-08T04:09:56;10.33;;;7.00;;
42124;SDS011;27787;44.594;11.046;2023-09-08T04:12:40;11.13;;;6.88;;
42124;SDS011;27787;44.594;11.046;2023-09-08T04:15:25;9.65;;;6.82;;
42124;SDS011;27787;44.594;11.046;2023-09-08T04:18:09;13.23;;;7.55;;
42124;SDS011;27787;44.594;11.046;2023-09-08T04:20:53;12.15;;;7.38;;
42124;SDS011;27787;44.594;11.046;2023-09-08T04:23:37;9.48;;;6.68;;
42124;SDS011;27787;44.594;11.046;2023-09-08T04:26:21;11.52;;;7.65;;
42124;SDS011;27787;44.594;11.046;2023-09-08T04:29:06;15.97;;;7.20;;
42124;SDS011;27787;44.594;11.046;2023-09-08T04:31:50;12.10;;;7.57;;
42124;SDS011;27787;44.594;11.046;2023-09-08T04:34:43;11.30;;;7.55;;
42124;SDS011;27787;44.594;11.046;2023-09-08T04:37:27;10.57;;;7.60;;
42124;SDS011;27787;44.594;11.046;2023-09-08T04:40:11;13.32;;;7.22;;
42124;SDS011;27787;44.594;11.046;2023-09-08T04:42:55;20.33;;;8.00;;
42124;SDS011;27787;44.594;11.046;2023-09-08T04:45:40;11.18;;;7.78;;
42124;SDS011;27787;44.594;11.046;2023-09-08T04:48:25;12.50;;;7.90;;
42124;SDS011;27787;44.594;11.046;2023-09-08T04:51:10;14.20;;;7.40;;
42124;SDS011;27787;44.594;11.046;2023-09-08T04:53:54;14.20;;;8.47;;
42124;SDS011;27787;44.594;11.046;2023-09-08T04:56:40;13.57;;;8.15;;
42124;SDS011;27787;44.594;11.046;2023-09-08T04:59:24;12.77;;;7.60;;
42124;SDS011;27787;44.594;11.046;2023-09-08T05:02:11;16.73;;;7.80;;
42124;SDS011;27787;44.594;11.046;2023-09-08T05:04:55;12.27;;;8.77;;
42124;SDS011;27787;44.594;11.046;2023-09-08T05:07:40;11.40;;;8.10;;
42124;SDS011;27787;44.594;11.046;2023-09-08T05:10:24;13.85;;;8.65;;
42124;SDS011;27787;44.594;11.046;2023-09-08T05:13:09;11.05;;;7.45;;
42124;SDS011;27787;44.594;11.046;2023-09-08T05:15:54;10.07;;;7.35;;
42124;SDS011;27787;44.594;11.046;2023-09-08T05:18:46;10.15;;;6.63;;
42124;SDS011;27787;44.594;11.046;2023-09-08T05:21:33;10.53;;;7.30;;
42124;SDS011;27787;44.594;11.046;2023-09-08T05:24:20;11.85;;;7.25;;
42124;SDS011;27787;44.594;11.046;2023-09-08T05:27:05;11.48;;;7.18;;
42124;SDS011;27787;44.594;11.046;2023-09-08T05:29:50;12.40;;;7.25;;
42124;SDS011;27787;44.594;11.046;2023-09-08T05:32:34;14.07;;;7.03;;
42124;SDS011;27787;44.594;11.046;2023-09-08T05:35:19;15.68;;;7.07;;
42124;SDS011;27787;44.594;11.046;2023-09-08T05:40:48;11.07;;;7.28;;
42124;SDS011;27787;44.594;11.046;2023-09-08T05:43:33;14.82;;;7.63;;
42124;SDS011;27787;44.594;11.046;2023-09-08T05:46:17;11.80;;;7.40;;
42124;SDS011;27787;44.594;11.046;2023-09-08T05:49:02;13.88;;;6.85;;
42124;SDS011;27787;44.594;11.046;2023-09-08T05:54:31;15.13;;;7.20;;
42124;SDS011;27787;44.594;11.046;2023-09-08T05:57:16;11.45;;;7.47;;
42124;SDS011;27787;44.594;11.046;2023-09-08T06:00:02;13.98;;;7.07;;
42124;SDS011;27787;44.594;11.046;2023-09-08T06:02:56;10.13;;;7.28;;
42124;SDS011;27787;44.594;11.046;2023-09-08T06:05:40;16.23;;;7.78;;
42124;SDS011;27787;44.594;11.046;2023-09-08T06:08:25;17.83;;;7.90;;
42124;SDS011;27787;44.594;11.046;2023-09-08T06:11:09;14.73;;;8.00;;
42124;SDS011;27787;44.594;11.046;2023-09-08T06:13:53;12.75;;;7.70;;
42124;SDS011;27787;44.594;11.046;2023-09-08T06:16:45;15.77;;;8.15;;
42124;SDS011;27787;44.594;11.046;2023-09-08T06:19:29;20.33;;;7.60;;
42124;SDS011;27787;44.594;11.046;2023-09-08T06:22:14;18.17;;;7.90;;
42124;SDS011;27787;44.594;11.046;2023-09-08T06:25:01;16.17;;;7.60;;
42124;SDS011;27787;44.594;11.046;2023-09-08T06:27:44;13.63;;;6.45;;
42124;SDS011;27787;44.594;11.046;2023-09-08T06:30:29;12.70;;;7.03;;
42124;SDS011;27787;44.594;11.046;2023-09-08T06:33:14;14.65;;;7.15;;
42124;SDS011;27787;44.594;11.046;2023-09-08T06:35:59;11.53;;;6.73;;
42124;SDS011;27787;44.594;11.046;2023-09-08T06:38:44;9.65;;;7.22;;
42124;SDS011;27787;44.594;11.046;2023-09-08T06:41:29;17.35;;;7.65;;
42124;SDS011;27787;44.594;11.046;2023-09-08T06:44:15;10.18;;;7.10;;
42124;SDS011;27787;44.594;11.046;2023-09-08T06:47:00;10.67;;;6.67;;
42124;SDS011;27787;44.594;11.046;2023-09-08T06:49:45;10.20;;;7.03;;
42124;SDS011;27787;44.594;11.046;2023-09-08T06:52:30;12.63;;;7.03;;
42124;SDS011;27787;44.594;11.046;2023-09-08T06:55:16;14.45;;;6.93;;
42124;SDS011;27787;44.594;11.046;2023-09-08T07:00:45;13.48;;;7.43;;
42124;SDS011;27787;44.594;11.046;2023-09-08T07:03:29;13.48;;;7.60;;
42124;SDS011;27787;44.594;11.046;2023-09-08T07:06:21;12.93;;;6.95;;
42124;SDS011;27787;44.594;11.046;2023-09-08T07:09:09;10.02;;;6.82;;
42124;SDS011;27787;44.594;11.046;2023-09-08T07:11:53;10.82;;;6.28;;
42124;SDS011;27787;44.594;11.046;2023-09-08T07:14:38;13.93;;;7.33;;
42124;SDS011;27787;44.594;11.046;2023-09-08T07:17:22;11.57;;;7.13;;
42124;SDS011;27787;44.594;11.046;2023-09-08T07:20:10;12.40;;;7.10;;
42124;SDS011;27787;44.594;11.046;2023-09-08T07:22:55;11.82;;;7.07;;
42124;SDS011;27787;44.594;11.046;2023-09-08T07:25:38;14.45;;;8.07;;
42124;SDS011;27787;44.594;11.046;2023-09-08T07:28:23;11.85;;;6.78;;
42124;SDS011;27787;44.594;11.046;2023-09-08T07:31:10;9.98;;;6.40;;
42124;SDS011;27787;44.594;11.046;2023-09-08T07:33:58;12.48;;;6.63;;
42124;SDS011;27787;44.594;11.046;2023-09-08T07:36:43;9.87;;;7.27;;
42124;SDS011;27787;44.594;11.046;2023-09-08T07:39:27;9.32;;;6.78;;
42124;SDS011;27787;44.594;11.046;2023-09-08T07:42:11;14.52;;;6.15;;
42124;SDS011;27787;44.594;11.046;2023-09-08T07:44:55;9.40;;;6.18;;
42124;SDS011;27787;44.594;11.046;2023-09-08T07:47:39;23.80;;;7.63;;
42124;SDS011;27787;44.594;11.046;2023-09-08T07:50:24;11.85;;;5.68;;
42124;SDS011;27787;44.594;11.046;2023-09-08T07:53:09;7.53;;;5.32;;
42124;SDS011;27787;44.594;11.046;2023-09-08T07:55:54;10.63;;;5.70;;
42124;SDS011;27787;44.594;11.046;2023-09-08T07:58:38;10.38;;;5.70;;
42124;SDS011;27787;44.594;11.046;2023-09-08T08:01:24;10.00;;;6.22;;
42124;SDS011;27787;44.594;11.046;2023-09-08T08:04:07;9.48;;;6.18;;
42124;SDS011;27787;44.594;11.046;2023-09-08T08:06:52;9.53;;;5.40;;
42124;SDS011;27787;44.594;11.046;2023-09-08T08:09:36;11.30;;;5.28;;
42124;SDS011;27787;44.594;11.046;2023-09-08T08:12:20;11.77;;;5.90;;
42124;SDS011;27787;44.594;11.046;2023-09-08T08:15:04;11.13;;;5.47;;
42124;SDS011;27787;44.594;11.046;2023-09-08T08:17:48;11.32;;;5.03;;
42124;SDS011;27787;44.594;11.046;2023-09-08T08:20:33;10.25;;;5.05;;
42124;SDS011;27787;44.594;11.046;2023-09-08T08:23:20;8.27;;;5.60;;
42124;SDS011;27787;44.594;11.046;2023-09-08T08:26:04;7.17;;;4.77;;
42124;SDS011;27787;44.594;11.046;2023-09-08T08:28:49;8.80;;;4.50;;
42124;SDS011;27787;44.594;11.046;2023-09-08T08:31:33;7.80;;;4.72;;
42124;SDS011;27787;44.594;11.046;2023-09-08T08:34:17;9.73;;;5.05;;
42124;SDS011;27787;44.594;11.046;2023-09-08T08:37:01;9.80;;;5.15;;
42124;SDS011;27787;44.594;11.046;2023-09-08T08:39:45;7.93;;;4.47;;
42124;SDS011;27787;44.594;11.046;2023-09-08T08:42:32;11.52;;;3.97;;
42124;SDS011;27787;44.594;11.046;2023-09-08T08:45:17;7.22;;;4.55;;
42124;SDS011;27787;44.594;11.046;2023-09-08T08:48:03;6.78;;;4.45;;
42124;SDS011;27787;44.594;11.046;2023-09-08T08:50:48;9.35;;;4.30;;
42124;SDS011;27787;44.594;11.046;2023-09-08T08:53:34;8.43;;;4.78;;
42124;SDS011;27787;44.594;11.046;2023-09-08T08:56:20;11.27;;;4.60;;
42124;SDS011;27787;44.594;11.046;2023-09-08T08:59:04;8.73;;;4.43;;
42124;SDS011;27787;44.594;11.046;2023-09-08T09:01:50;6.43;;;4.28;;
42124;SDS011;27787;44.594;11.046;2023-09-08T09:04:34;6.40;;;4.70;;
42124;SDS011;27787;44.594;11.046;2023-09-08T09:07:20;8.07;;;4.80;;
42124;SDS011;27787;44.594;11.046;2023-09-08T09:10:06;11.00;;;5.72;;
42124;SDS011;27787;44.594;11.046;2023-09-08T09:12:51;7.95;;;4.28;;
42124;SDS011;27787;44.594;11.046;2023-09-08T09:15:35;9.10;;;4.15;;
42124;SDS011;27787;44.594;11.046;2023-09-08T09:18:20;8.45;;;4.50;;
42124;SDS011;27787;44.594;11.046;2023-09-08T09:21:04;10.93;;;5.05;;
42124;SDS011;27787;44.594;11.046;2023-09-08T09:23:48;8.23;;;4.32;;
42124;SDS011;27787;44.594;11.046;2023-09-08T09:26:33;7.38;;;4.10;;
42124;SDS011;27787;44.594;11.046;2023-09-08T09:29:17;7.43;;;4.38;;
42124;SDS011;27787;44.594;11.046;2023-09-08T09:32:05;9.38;;;4.82;;
42124;SDS011;27787;44.594;11.046;2023-09-08T09:34:50;6.90;;;4.00;;
42124;SDS011;27787;44.594;11.046;2023-09-08T09:37:40;5.25;;;3.83;;
42124;SDS011;27787;44.594;11.046;2023-09-08T09:40:27;9.23;;;4.30;;
42124;SDS011;27787;44.594;11.046;2023-09-08T09:43:12;5.30;;;3.70;;
42124;SDS011;27787;44.594;11.046;2023-09-08T09:45:57;11.30;;;3.90;;
42124;SDS011;27787;44.594;11.046;2023-09-08T09:48:42;5.85;;;4.03;;
42124;SDS011;27787;44.594;11.046;2023-09-08T09:51:26;7.55;;;4.70;;
42124;SDS011;27787;44.594;11.046;2023-09-08T09:54:11;5.30;;;4.03;;
42124;SDS011;27787;44.594;11.046;2023-09-08T09:56:55;9.55;;;4.75;;
42124;SDS011;27787;44.594;11.046;2023-09-08T09:59:43;7.40;;;4.77;;
42124;SDS011;27787;44.594;11.046;2023-09-08T10:02:27;12.57;;;4.43;;
42124;SDS011;27787;44.594;11.046;2023-09-08T10:05:14;6.75;;;3.60;;
42124;SDS011;27787;44.594;11.046;2023-09-08T10:07:58;7.17;;;4.40;;
42124;SDS011;27787;44.594;11.046;2023-09-08T10:10:43;8.38;;;4.55;;
42124;SDS011;27787;44.594;11.046;2023-09-08T10:13:30;11.63;;;4.25;;
42124;SDS011;27787;44.594;11.046;2023-09-08T10:16:18;7.00;;;3.83;;
42124;SDS011;27787;44.594;11.046;2023-09-08T10:19:09;6.32;;;4.38;;
42124;SDS011;27787;44.594;11.046;2023-09-08T10:22:00;7.38;;;4.90;;
42124;SDS011;27787;44.594;11.046;2023-09-08T10:24:46;7.50;;;4.45;;
42124;SDS011;27787;44.594;11.046;2023-09-08T10:27:34;6.90;;;4.43;;
42124;SDS011;27787;44.594;11.046;2023-09-08T10:44:40;10.38;;;5.03;;
42124;SDS011;27787;44.594;11.046;2023-09-08T10:47:24;7.10;;;4.43;;
42124;SDS011;27787;44.594;11.046;2023-09-08T10:50:19;8.35;;;4.40;;
42124;SDS011;27787;44.594;11.046;2023-09-08T10:53:14;6.63;;;4.20;;
42124;SDS011;27787;44.594;11.046;2023-09-08T10:56:01;8.80;;;4.78;;
42124;SDS011;27787;44.594;11.046;2023-09-08T10:58:50;6.68;;;4.10;;
42124;SDS011;27787;44.594;11.046;2023-09-08T11:01:35;7.75;;;4.55;;
42124;SDS011;27787;44.594;11.046;2023-09-08T11:04:21;10.70;;;5.15;;
42124;SDS011;27787;44.594;11.046;2023-09-08T11:07:07;6.35;;;4.65;;
42124;SDS011;27787;44.594;11.046;2023-09-08T11:09:52;10.65;;;4.90;;
42124;SDS011;27787;44.594;11.046;2023-09-08T11:12:36;8.80;;;4.93;;
42124;SDS011;27787;44.594;11.046;2023-09-08T11:15:21;6.38;;;4.00;;
42124;SDS011;27787;44.594;11.046;2023-09-08T11:18:05;11.02;;;4.47;;
42124;SDS011;27787;44.594;11.046;2023-09-08T11:20:52;7.85;;;4.82;;
42124;SDS011;27787;44.594;11.046;2023-09-08T11:23:37;5.72;;;4.22;;
42124;SDS011;27787;44.594;11.046;2023-09-08T11:26:22;9.82;;;5.72;;
42124;SDS011;27787;44.594;11.046;2023-09-08T11:29:06;8.20;;;4.67;;
42124;SDS011;27787;44.594;11.046;2023-09-08T11:31:51;6.45;;;5.00;;
42124;SDS011;27787;44.594;11.046;2023-09-08T11:34:37;7.60;;;4.40;;
42124;SDS011;27787;44.594;11.046;2023-09-08T11:37:21;7.88;;;4.70;;
42124;SDS011;27787;44.594;11.046;2023-09-08T11:40:06;8.30;;;5.03;;
42124;SDS011;27787;44.594;11.046;2023-09-08T11:42:57;6.13;;;4.18;;
42124;SDS011;27787;44.594;11.046;2023-09-08T11:45:42;6.43;;;4.73;;
42124;SDS011;27787;44.594;11.046;2023-09-08T11:48:26;9.77;;;5.13;;
42124;SDS011;27787;44.594;11.046;2023-09-08T11:51:11;11.93;;;4.80;;
42124;SDS011;27787;44.594;11.046;2023-09-08T11:53:55;18.25;;;6.13;;
42124;SDS011;27787;44.594;11.046;2023-09-08T11:56:40;10.00;;;4.88;;
42124;SDS011;27787;44.594;11.046;2023-09-08T11:59:24;8.10;;;4.75;;
42124;SDS011;27787;44.594;11.046;2023-09-08T12:02:10;6.88;;;4.63;;
42124;SDS011;27787;44.594;11.046;2023-09-08T12:04:54;19.48;;;5.55;;
42124;SDS011;27787;44.594;11.046;2023-09-08T12:07:38;112.50;;;10.63;;
42124;SDS011;27787;44.594;11.046;2023-09-08T12:10:23;21.23;;;5.57;;
42124;SDS011;27787;44.594;11.046;2023-09-08T12:13:08;12.30;;;5.82;;
42124;SDS011;27787;44.594;11.046;2023-09-08T12:15:53;22.35;;;6.15;;
42124;SDS011;27787;44.594;11.046;2023-09-08T12:18:38;10.95;;;5.10;;
42124;SDS011;27787;44.594;11.046;2023-09-08T12:21:23;12.98;;;5.40;;
42124;SDS011;27787;44.594;11.046;2023-09-08T12:24:07;18.95;;;5.93;;
42124;SDS011;27787;44.594;11.046;2023-09-08T12:26:56;8.32;;;5.38;;
42124;SDS011;27787;44.594;11.046;2023-09-08T12:29:50;9.95;;;4.78;;
42124;SDS011;27787;44.594;11.046;2023-09-08T12:32:38;7.82;;;4.80;;
42124;SDS011;27787;44.594;11.046;2023-09-08T12:35:22;12.13;;;5.65;;
42124;SDS011;27787;44.594;11.046;2023-09-08T12:38:07;8.13;;;5.20;;
42124;SDS011;27787;44.594;11.046;2023-09-08T12:40:51;9.57;;;5.28;;
42124;SDS011;27787;44.594;11.046;2023-09-08T12:43:35;9.40;;;5.10;;
42124;SDS011;27787;44.594;11.046;2023-09-08T12:46:19;8.45;;;5.00;;
42124;SDS011;27787;44.594;11.046;2023-09-08T12:49:04;7.20;;;4.78;;
42124;SDS011;27787;44.594;11.046;2023-09-08T12:51:48;9.07;;;4.63;;
42124;SDS011;27787;44.594;11.046;2023-09-08T12:54:32;7.93;;;4.88;;
42124;SDS011;27787;44.594;11.046;2023-09-08T12:57:16;10.10;;;5.13;;
42124;SDS011;27787;44.594;11.046;2023-09-08T13:00:01;12.77;;;5.22;;
42124;SDS011;27787;44.594;11.046;2023-09-08T13:02:46;6.40;;;4.78;;
42124;SDS011;27787;44.594;11.046;2023-09-08T13:05:31;8.57;;;5.05;;
42124;SDS011;27787;44.594;11.046;2023-09-08T13:11:00;10.57;;;4.70;;
42124;SDS011;27787;44.594;11.046;2023-09-08T13:13:44;8.55;;;5.05;;
42124;SDS011;27787;44.594;11.046;2023-09-08T13:16:28;18.05;;;5.38;;
42124;SDS011;27787;44.594;11.046;2023-09-08T13:19:13;8.85;;;4.80;;
42124;SDS011;27787;44.594;11.046;2023-09-08T13:21:58;6.20;;;4.22;;
42124;SDS011;27787;44.594;11.046;2023-09-08T13:24:42;9.82;;;4.97;;
42124;SDS011;27787;44.594;11.046;2023-09-08T13:27:26;7.60;;;4.80;;
42124;SDS011;27787;44.594;11.046;2023-09-08T13:30:13;9.30;;;4.78;;
42124;SDS011;27787;44.594;11.046;2023-09-08T13:32:59;8.00;;;4.85;;
42124;SDS011;27787;44.594;11.046;2023-09-08T13:35:43;8.05;;;4.95;;
42124;SDS011;27787;44.594;11.046;2023-09-08T13:38:28;6.78;;;5.03;;
42124;SDS011;27787;44.594;11.046;2023-09-08T13:41:13;9.38;;;5.25;;
42124;SDS011;27787;44.594;11.046;2023-09-08T13:43:57;9.30;;;4.90;;
42124;SDS011;27787;44.594;11.046;2023-09-08T13:46:43;6.55;;;4.65;;
42124;SDS011;27787;44.594;11.046;2023-09-08T13:49:27;9.85;;;4.70;;
42124;SDS011;27787;44.594;11.046;2023-09-08T13:52:11;9.40;;;5.25;;
42124;SDS011;27787;44.594;11.046;2023-09-08T13:54:56;6.35;;;4.63;;
42124;SDS011;27787;44.594;11.046;2023-09-08T13:57:40;8.27;;;5.30;;
42124;SDS011;27787;44.594;11.046;2023-09-08T14:00:24;8.35;;;5.18;;
42124;SDS011;27787;44.594;11.046;2023-09-08T14:03:08;10.77;;;4.55;;
42124;SDS011;27787;44.594;11.046;2023-09-08T14:11:38;7.72;;;4.93;;
42124;SDS011;27787;44.594;11.046;2023-09-08T14:14:22;8.50;;;5.00;;
42124;SDS011;27787;44.594;11.046;2023-09-08T14:17:08;7.43;;;5.55;;
42124;SDS011;27787;44.594;11.046;2023-09-08T14:19:52;11.02;;;4.88;;
42124;SDS011;27787;44.594;11.046;2023-09-08T14:22:36;7.38;;;5.18;;
42124;SDS011;27787;44.594;11.046;2023-09-08T14:25:20;8.27;;;4.70;;
42124;SDS011;27787;44.594;11.046;2023-09-08T14:28:05;7.60;;;4.70;;
42124;SDS011;27787;44.594;11.046;2023-09-08T14:30:49;7.53;;;4.57;;
42124;SDS011;27787;44.594;11.046;2023-09-08T14:33:34;9.70;;;5.22;;
42124;SDS011;27787;44.594;11.046;2023-09-08T14:36:18;11.82;;;5.28;;
42124;SDS011;27787;44.594;11.046;2023-09-08T14:39:03;13.07;;;5.00;;
42124;SDS011;27787;44.594;11.046;2023-09-08T14:41:48;10.00;;;5.35;;
42124;SDS011;27787;44.594;11.046;2023-09-08T14:44:34;5.75;;;4.43;;
42124;SDS011;27787;44.594;11.046;2023-09-08T14:47:18;13.57;;;5.60;;
42124;SDS011;27787;44.594;11.046;2023-09-08T14:50:03;6.95;;;5.57;;
42124;SDS011;27787;44.594;11.046;2023-09-08T14:55:32;7.38;;;5.70;;
42124;SDS011;27787;44.594;11.046;2023-09-08T14:58:16;8.32;;;5.85;;
42124;SDS011;27787;44.594;11.046;2023-09-08T15:01:01;7.53;;;4.97;;
42124;SDS011;27787;44.594;11.046;2023-09-08T15:03:54;8.90;;;5.50;;
42124;SDS011;27787;44.594;11.046;2023-09-08T15:06:50;10.07;;;4.90;;
42124;SDS011;27787;44.594;11.046;2023-09-08T15:09:35;6.82;;;4.95;;
42124;SDS011;27787;44.594;11.046;2023-09-08T15:12:19;8.25;;;4.20;;
42124;SDS011;27787;44.594;11.046;2023-09-08T15:15:03;7.65;;;5.47;;
42124;SDS011;27787;44.594;11.046;2023-09-08T15:17:48;16.10;;;4.82;;
42124;SDS011;27787;44.594;11.046;2023-09-08T15:20:32;7.40;;;4.95;;
42124;SDS011;27787;44.594;11.046;2023-09-08T15:23:16;6.13;;;4.38;;
42124;SDS011;27787;44.594;11.046;2023-09-08T15:26:00;8.80;;;4.72;;
42124;SDS011;27787;44.594;11.046;2023-09-08T15:31:29;10.43;;;4.97;;
42124;SDS011;27787;44.594;11.046;2023-09-08T15:34:13;9.18;;;5.45;;
42124;SDS011;27787;44.594;11.046;2023-09-08T15:36:57;5.33;;;4.40;;
42124;SDS011;27787;44.594;11.046;2023-09-08T15:39:41;8.60;;;4.30;;
42124;SDS011;27787;44.594;11.046;2023-09-08T15:42:25;6.43;;;4.38;;
42124;SDS011;27787;44.594;11.046;2023-09-08T15:45:09;8.27;;;4.73;;
42124;SDS011;27787;44.594;11.046;2023-09-08T15:47:55;8.38;;;4.90;;
42124;SDS011;27787;44.594;11.046;2023-09-08T15:50:38;8.02;;;4.78;;
42124;SDS011;27787;44.594;11.046;2023-09-08T15:53:23;8.63;;;4.50;;
42124;SDS011;27787;44.594;11.046;2023-09-08T15:56:07;6.87;;;4.57;;
42124;SDS011;27787;44.594;11.046;2023-09-08T15:58:53;6.53;;;4.35;;
42124;SDS011;27787;44.594;11.046;2023-09-08T16:01:37;4.95;;;3.90;;
42124;SDS011;27787;44.594;11.046;2023-09-08T16:04:22;7.32;;;4.35;;
42124;SDS011;27787;44.594;11.046;2023-09-08T16:07:06;8.70;;;4.47;;
42124;SDS011;27787;44.594;11.046;2023-09-08T16:09:50;7.88;;;4.20;;
42124;SDS011;27787;44.594;11.046;2023-09-08T16:12:35;6.47;;;3.80;;
42124;SDS011;27787;44.594;11.046;2023-09-08T16:15:18;5.15;;;4.05;;
42124;SDS011;27787;44.594;11.046;2023-09-08T16:18:03;8.10;;;4.43;;
42124;SDS011;27787;44.594;11.046;2023-09-08T16:20:48;6.03;;;4.38;;
42124;SDS011;27787;44.594;11.046;2023-09-08T16:23:32;8.23;;;4.65;;
42124;SDS011;27787;44.594;11.046;2023-09-08T16:26:16;5.40;;;4.25;;
42124;SDS011;27787;44.594;11.046;2023-09-08T16:29:00;6.13;;;4.43;;
42124;SDS011;27787;44.594;11.046;2023-09-08T16:31:44;8.45;;;4.78;;
42124;SDS011;27787;44.594;11.046;2023-09-08T16:34:28;13.37;;;4.50;;
42124;SDS011;27787;44.594;11.046;2023-09-08T16:37:12;13.82;;;4.40;;
42124;SDS011;27787;44.594;11.046;2023-09-08T16:39:57;11.23;;;4.32;;
42124;SDS011;27787;44.594;11.046;2023-09-08T16:42:43;5.65;;;3.97;;
42124;SDS011;27787;44.594;11.046;2023-09-08T16:45:28;7.90;;;4.57;;
42124;SDS011;27787;44.594;11.046;2023-09-08T16:48:13;5.55;;;4.28;;
42124;SDS011;27787;44.594;11.046;2023-09-08T16:50:57;7.13;;;4.72;;
42124;SDS011;27787;44.594;11.046;2023-09-08T16:53:41;8.45;;;4.53;;
42124;SDS011;27787;44.594;11.046;2023-09-08T16:56:25;6.97;;;4.70;;
42124;SDS011;27787;44.594;11.046;2023-09-08T16:59:09;5.60;;;4.57;;
42124;SDS011;27787;44.594;11.046;2023-09-08T17:01:53;8.60;;;4.95;;
42124;SDS011;27787;44.594;11.046;2023-09-08T17:04:37;9.95;;;5.70;;